createdAt,value
2022-09-06T00:00:18.657Z,3.08
2022-09-06T00:02:47.397Z,3.17
2022-09-06T00:05:15.518Z,2.80
2022-09-06T00:07:44.947Z,2.90
2022-09-06T00:10:13.589Z,3.08
2022-09-06T00:12:41.749Z,2.95
2022-09-06T00:15:10.745Z,3.67
2022-09-06T00:17:38.758Z,2.83
2022-09-06T00:20:09.329Z,3.30
2022-09-06T00:22:37.543Z,3.13
2022-09-06T00:25:08.136Z,2.85
2022-09-06T00:27:36.691Z,2.55
2022-09-06T00:30:05.746Z,3.25
2022-09-06T00:32:34.045Z,3.92
2022-09-06T00:35:02.074Z,3.05
2022-09-06T00:37:30.205Z,3.20
2022-09-06T00:39:58.277Z,2.90
2022-09-06T00:42:27.715Z,3.10
2022-09-06T00:44:55.883Z,3.13
2022-09-06T00:47:24.088Z,3.03
2022-09-06T00:49:54.601Z,2.78
2022-09-06T00:52:24.219Z,2.90
2022-09-06T00:54:52.776Z,2.70
2022-09-06T00:57:21.280Z,2.85
2022-09-06T00:59:51.662Z,2.63
2022-09-06T01:02:20.249Z,3.50
2022-09-06T01:04:51.230Z,3.20
2022-09-06T01:07:28.985Z,3.63
2022-09-06T01:10:14.801Z,2.42
2022-09-06T01:12:51.326Z,3.05
2022-09-06T01:15:32.365Z,2.78
2022-09-06T01:18:14.230Z,3.15
2022-09-06T01:21:15.333Z,2.97
2022-09-06T01:24:29.179Z,3.10
2022-09-06T01:27:35.263Z,3.33
2022-09-06T01:30:10.288Z,2.92
2022-09-06T01:32:48.192Z,3.05
2022-09-06T01:35:23.050Z,3.25
2022-09-06T01:37:51.346Z,2.95
2022-09-06T01:40:19.571Z,3.28
2022-09-06T01:42:51.580Z,3.20
2022-09-06T01:45:24.475Z,3.50
2022-09-06T01:48:10.694Z,3.10
2022-09-06T01:50:51.070Z,3.28
2022-09-06T01:53:34.545Z,3.15
2022-09-06T01:56:10.084Z,3.55
2022-09-06T01:58:56.755Z,3.20
2022-09-06T02:01:31.553Z,3.88
2022-09-06T02:04:04.651Z,3.40
2022-09-06T02:06:36.867Z,2.97
2022-09-06T02:09:09.009Z,3.25
2022-09-06T02:11:41.806Z,3.47
2022-09-06T02:14:14.572Z,2.92
2022-09-06T02:16:46.810Z,2.75
2022-09-06T02:19:19.306Z,3.35
2022-09-06T02:21:48.726Z,3.33
2022-09-06T02:24:21.146Z,3.08
2022-09-06T02:26:49.457Z,2.90
2022-09-06T02:29:18.642Z,2.60
2022-09-06T02:31:51.921Z,2.83
2022-09-06T02:34:21.261Z,3.17
2022-09-06T02:36:49.616Z,3.40
2022-09-06T02:39:17.732Z,3.50
2022-09-06T02:41:47.971Z,2.95
2022-09-06T02:44:16.224Z,3.25
2022-09-06T02:46:44.247Z,3.10
2022-09-06T02:49:13.648Z,3.38
2022-09-06T02:51:41.876Z,2.90
2022-09-06T02:54:09.917Z,2.65
2022-09-06T02:56:38.193Z,2.72
2022-09-06T02:59:06.966Z,3.15
2022-09-06T03:01:35.319Z,2.72
2022-09-06T03:04:03.965Z,3.05
2022-09-06T03:06:33.608Z,2.85
2022-09-06T03:09:01.843Z,2.72
2022-09-06T03:11:29.859Z,3.60
2022-09-06T03:13:57.878Z,3.00
2022-09-06T03:16:26.005Z,2.92
2022-09-06T03:18:54.070Z,2.92
2022-09-06T03:21:22.097Z,3.33
2022-09-06T03:23:51.529Z,2.63
2022-09-06T03:26:19.639Z,2.95
2022-09-06T03:28:47.714Z,2.88
2022-09-06T03:31:15.743Z,3.08
2022-09-06T03:33:43.791Z,3.33
2022-09-06T03:36:11.875Z,3.40
2022-09-06T03:38:40.075Z,3.60
2022-09-06T03:41:09.446Z,3.25
2022-09-06T03:43:37.693Z,2.70
2022-09-06T03:46:05.890Z,3.03
2022-09-06T03:48:33.956Z,3.08
2022-09-06T03:51:02.260Z,3.47
2022-09-06T03:53:30.669Z,3.22
2022-09-06T03:55:59.723Z,2.80
2022-09-06T03:58:32.970Z,3.28
2022-09-06T04:01:02.828Z,3.70
2022-09-06T04:03:30.963Z,3.75
2022-09-06T04:05:58.985Z,3.00
2022-09-06T04:08:27.659Z,3.42
2022-09-06T04:10:56.401Z,2.92
2022-09-06T04:13:25.432Z,3.30
2022-09-06T04:15:55.173Z,2.88
2022-09-06T04:18:23.641Z,3.33
2022-09-06T04:20:53.310Z,3.38
2022-09-06T04:23:21.936Z,3.15
2022-09-06T04:25:51.411Z,2.95
2022-09-06T04:28:20.047Z,2.97
2022-09-06T04:30:55.146Z,2.83
2022-09-06T04:33:25.926Z,2.90
2022-09-06T04:35:54.904Z,2.92
2022-09-06T04:38:23.089Z,3.28
2022-09-06T04:40:51.273Z,3.40
2022-09-06T04:43:19.515Z,2.80
2022-09-06T04:45:47.675Z,2.83
2022-09-06T04:48:17.321Z,2.33
2022-09-06T04:50:45.391Z,3.35
2022-09-06T04:53:13.503Z,3.38
2022-09-06T04:55:41.631Z,3.22
2022-09-06T04:58:09.696Z,3.22
2022-09-06T05:00:38.947Z,3.00
2022-09-06T05:03:07.007Z,3.00
2022-09-06T05:05:36.488Z,3.45
2022-09-06T05:08:04.772Z,3.00
2022-09-06T05:10:32.772Z,3.05
2022-09-06T05:13:00.794Z,2.88
2022-09-06T05:15:28.835Z,3.17
2022-09-06T05:18:04.423Z,3.00
2022-09-06T05:20:32.671Z,2.72
2022-09-06T05:23:02.322Z,3.22
2022-09-06T05:25:31.181Z,3.25
2022-09-06T05:27:59.168Z,3.03
2022-09-06T05:30:27.176Z,3.25
2022-09-06T05:32:55.183Z,3.50
2022-09-06T05:35:23.249Z,3.72
2022-09-06T05:37:51.325Z,3.28
2022-09-06T05:40:20.735Z,3.47
2022-09-06T05:42:48.766Z,2.85
2022-09-06T05:45:17.181Z,3.65
2022-09-06T05:47:45.244Z,3.25
2022-09-06T05:50:13.587Z,3.10
2022-09-06T05:52:41.599Z,3.72
2022-09-06T05:55:10.413Z,3.63
2022-09-06T05:57:39.872Z,3.60
2022-09-06T06:00:12.088Z,3.40
2022-09-06T06:02:41.047Z,3.28
2022-09-06T06:05:09.772Z,3.53
2022-09-06T06:07:37.783Z,3.53
2022-09-06T06:10:06.723Z,3.10
2022-09-06T06:12:34.691Z,3.63
2022-09-06T06:15:05.766Z,3.50
2022-09-06T06:17:34.188Z,3.40
2022-09-06T06:20:02.260Z,3.22
2022-09-06T06:22:30.269Z,3.47
2022-09-06T06:24:58.336Z,2.85
2022-09-06T06:27:26.387Z,2.78
2022-09-06T06:29:54.388Z,3.42
2022-09-06T06:32:23.769Z,3.25
2022-09-06T06:34:51.768Z,4.07
2022-09-06T06:37:19.811Z,3.97
2022-09-06T06:39:47.984Z,4.45
2022-09-06T06:42:16.130Z,4.13
2022-09-06T06:44:53.556Z,4.30
2022-09-06T06:47:22.954Z,4.80
2022-09-06T06:49:51.041Z,4.10
2022-09-06T06:52:21.417Z,4.25
2022-09-06T06:54:50.170Z,3.92
2022-09-06T06:57:18.192Z,3.80
2022-09-06T06:59:46.256Z,3.90
2022-09-06T07:02:15.765Z,3.72
2022-09-06T07:04:45.338Z,3.65
2022-09-06T07:12:49.407Z,4.07
2022-09-06T07:15:17.508Z,4.28
2022-09-06T07:17:45.777Z,3.72
2022-09-06T07:20:16.063Z,5.05
2022-09-06T07:22:44.481Z,5.07
2022-09-06T07:25:16.588Z,4.43
2022-09-06T07:27:49.480Z,4.00
2022-09-06T07:30:19.610Z,4.60
2022-09-06T07:32:47.779Z,3.75
2022-09-06T07:35:17.480Z,4.63
2022-09-06T07:37:53.081Z,4.25
2022-09-06T07:40:21.119Z,4.53
2022-09-06T07:42:49.388Z,5.25
2022-09-06T07:45:17.761Z,4.65
2022-09-06T07:48:01.119Z,4.40
2022-09-06T07:50:48.430Z,3.50
2022-09-06T07:53:24.604Z,4.63
2022-09-06T07:55:57.282Z,3.90
2022-09-06T07:58:25.403Z,3.60
2022-09-06T08:00:53.454Z,4.07
2022-09-06T08:03:21.576Z,3.17
2022-09-06T08:06:09.988Z,3.67
2022-09-06T08:11:28.932Z,2.92
2022-09-06T08:13:58.161Z,3.65
2022-09-06T08:16:29.045Z,3.83
2022-09-06T08:18:58.573Z,4.10
2022-09-06T08:21:30.314Z,3.92
2022-09-06T08:24:00.508Z,4.57
2022-09-06T08:26:30.203Z,4.53
2022-09-06T08:29:00.262Z,3.75
2022-09-06T08:31:29.598Z,4.18
2022-09-06T08:33:58.275Z,3.58
2022-09-06T08:36:29.716Z,4.22
2022-09-06T08:38:57.995Z,4.50
2022-09-06T08:41:27.954Z,3.10
2022-09-06T08:46:55.453Z,4.20
2022-09-06T08:49:24.944Z,3.88
2022-09-06T08:52:14.453Z,3.35
2022-09-06T08:54:49.729Z,3.47
2022-09-06T08:57:40.117Z,3.75
2022-09-06T09:00:12.282Z,3.58
2022-09-06T09:02:45.343Z,3.72
2022-09-06T09:05:26.550Z,3.88
2022-09-06T09:08:07.415Z,3.85
2022-09-06T09:10:42.588Z,3.38
2022-09-06T09:13:19.904Z,3.53
2022-09-06T09:15:48.019Z,3.35
2022-09-06T09:18:21.841Z,3.70
2022-09-06T09:20:49.897Z,3.78
2022-09-06T09:23:19.279Z,2.85
2022-09-06T09:25:49.247Z,3.25
2022-09-06T09:28:20.359Z,3.22
2022-09-06T09:30:51.168Z,4.05
2022-09-06T09:33:23.846Z,3.60
2022-09-06T09:35:52.809Z,3.80
2022-09-06T09:38:25.779Z,3.72
2022-09-06T09:40:55.666Z,3.45
2022-09-06T09:43:25.795Z,3.10
2022-09-06T09:46:17.496Z,2.80
2022-09-06T09:49:01.202Z,3.00
2022-09-06T09:51:30.456Z,2.92
2022-09-06T09:54:01.704Z,3.30
2022-09-06T09:56:41.506Z,3.00
2022-09-06T09:59:21.983Z,2.92
2022-09-06T10:01:50.472Z,3.17
2022-09-06T10:07:14.275Z,3.00
2022-09-06T10:09:46.525Z,3.28
2022-09-06T10:12:20.150Z,2.92
2022-09-06T10:14:49.703Z,3.33
2022-09-06T10:17:29.011Z,2.90
2022-09-06T10:19:57.748Z,2.35
2022-09-06T10:22:30.601Z,2.20
2022-09-06T10:25:48.934Z,2.78
2022-09-06T10:28:41.856Z,1.70
2022-09-06T10:31:33.989Z,2.53
2022-09-06T10:34:31.867Z,1.50
2022-09-06T10:37:09.607Z,1.88
2022-09-06T10:39:49.493Z,1.83
2022-09-06T10:42:29.940Z,1.88
2022-09-06T10:45:25.399Z,2.08
2022-09-06T10:47:58.612Z,1.70
2022-09-06T10:50:34.874Z,1.70
2022-09-06T10:53:10.779Z,1.27
2022-09-06T10:55:41.289Z,1.42
2022-09-06T11:00:47.677Z,1.60
2022-09-06T11:06:18.326Z,1.23
2022-09-06T11:08:57.837Z,1.30
2022-09-06T11:11:35.530Z,1.30
2022-09-06T11:14:10.154Z,1.80
2022-09-06T11:16:44.925Z,1.70
2022-09-06T11:19:17.793Z,1.38
2022-09-06T11:22:24.889Z,2.50
2022-09-06T11:25:34.296Z,2.17
2022-09-06T11:28:05.141Z,1.70
2022-09-06T11:30:35.392Z,1.70
2022-09-06T11:33:11.474Z,2.08
2022-09-06T11:35:42.650Z,1.77
2022-09-06T11:38:22.722Z,1.83
2022-09-06T11:41:00.683Z,1.73
2022-09-06T11:43:47.634Z,1.67
2022-09-06T11:46:53.179Z,1.60
2022-09-06T11:49:32.371Z,1.70
2022-09-06T11:52:00.557Z,1.75
2022-09-06T11:54:44.909Z,2.03
2022-09-06T11:57:17.695Z,2.28
2022-09-06T11:59:57.386Z,2.40
2022-09-06T12:02:35.351Z,2.85
2022-09-06T12:05:30.247Z,3.22
2022-09-06T12:08:29.249Z,3.25
2022-09-06T12:11:00.908Z,2.70
2022-09-06T12:13:54.381Z,3.63
2022-09-06T12:16:23.247Z,2.75
2022-09-06T12:18:57.449Z,3.47
2022-09-06T12:21:52.460Z,3.42
2022-09-06T12:24:52.422Z,2.85
2022-09-06T12:27:22.408Z,2.92
2022-09-06T12:29:56.233Z,3.17
2022-09-06T12:32:27.900Z,3.00
2022-09-06T12:37:55.656Z,3.10
2022-09-06T12:40:26.572Z,3.25
2022-09-06T12:42:55.336Z,3.30
2022-09-06T12:45:27.378Z,2.78
2022-09-06T12:48:06.192Z,3.13
2022-09-06T12:50:34.243Z,2.80
2022-09-06T12:53:05.729Z,3.17
2022-09-06T12:55:36.323Z,3.20
2022-09-06T12:58:07.514Z,3.67
2022-09-06T13:00:37.985Z,2.80
2022-09-06T13:03:11.919Z,3.13
2022-09-06T13:05:41.598Z,3.55
2022-09-06T13:08:15.871Z,3.03
2022-09-06T13:10:46.278Z,3.00
2022-09-06T13:13:22.181Z,2.95
2022-09-06T13:15:50.610Z,2.83
2022-09-06T13:18:27.373Z,2.70
2022-09-06T13:21:00.701Z,2.90
2022-09-06T13:23:31.603Z,2.70
2022-09-06T13:25:59.700Z,3.20
2022-09-06T13:28:30.055Z,3.13
2022-09-06T13:31:08.149Z,2.72
2022-09-06T13:33:37.922Z,2.53
2022-09-06T13:36:20.767Z,3.13
2022-09-06T13:38:50.803Z,2.88
2022-09-06T13:41:38.907Z,3.25
2022-09-06T13:44:08.977Z,3.33
2022-09-06T13:46:37.309Z,3.22
2022-09-06T13:49:06.171Z,3.33
2022-09-06T13:51:35.241Z,3.65
2022-09-06T13:54:10.594Z,3.03
2022-09-06T13:56:39.315Z,2.97
2022-09-06T13:59:09.910Z,2.75
2022-09-06T14:01:39.413Z,2.70
2022-09-06T14:04:08.340Z,3.15
2022-09-06T14:06:37.237Z,3.35
2022-09-06T14:09:08.331Z,2.78
2022-09-06T14:11:37.200Z,2.95
2022-09-06T14:14:05.579Z,3.17
2022-09-06T14:16:34.465Z,3.22
2022-09-06T14:19:02.591Z,2.85
2022-09-06T14:21:30.660Z,3.40
2022-09-06T14:24:03.921Z,3.17
2022-09-06T14:26:34.861Z,3.25
2022-09-06T14:29:03.251Z,2.95
2022-09-06T14:31:32.670Z,2.90
2022-09-06T14:34:02.218Z,3.40
2022-09-06T14:36:31.873Z,3.20
2022-09-06T14:39:00.917Z,3.45
2022-09-06T14:41:29.102Z,2.88
2022-09-06T14:43:59.634Z,3.13
2022-09-06T14:46:29.892Z,3.03
2022-09-06T14:48:59.427Z,3.38
2022-09-06T14:51:27.485Z,3.03
2022-09-06T14:53:58.514Z,2.88
2022-09-06T14:56:27.181Z,3.60
2022-09-06T14:58:57.556Z,3.33
2022-09-06T15:01:32.927Z,2.65
2022-09-06T15:04:05.403Z,3.75
2022-09-06T15:06:36.795Z,3.10
2022-09-06T15:09:05.738Z,3.50
2022-09-06T15:11:36.326Z,3.60
2022-09-06T15:14:06.294Z,3.00
2022-09-06T15:16:36.554Z,2.38
2022-09-06T15:19:05.002Z,3.88
2022-09-06T15:21:33.511Z,2.92
2022-09-06T15:24:02.551Z,3.03
2022-09-06T15:26:31.501Z,2.90
2022-09-06T15:28:59.495Z,2.65
2022-09-06T15:31:27.639Z,3.13
2022-09-06T15:33:58.114Z,3.25
2022-09-06T15:36:26.217Z,3.17
2022-09-06T15:38:54.878Z,2.65
2022-09-06T15:41:25.334Z,3.40
2022-09-06T15:43:56.812Z,2.83
2022-09-06T15:46:43.496Z,3.10
2022-09-06T15:49:14.797Z,2.47
2022-09-06T15:51:43.308Z,2.70
2022-09-06T15:54:12.765Z,2.97
2022-09-06T15:56:40.323Z,3.17
2022-09-06T15:59:08.373Z,3.15
2022-09-06T16:01:38.597Z,3.00
2022-09-06T16:04:07.736Z,2.88
2022-09-06T16:06:39.702Z,2.92
2022-09-06T16:09:10.374Z,3.25
2022-09-06T16:11:38.807Z,3.17
2022-09-06T16:14:08.698Z,2.70
2022-09-06T16:16:37.033Z,2.90
2022-09-06T16:19:05.654Z,3.03
2022-09-06T16:21:35.811Z,2.85
2022-09-06T16:24:07.040Z,3.03
2022-09-06T16:26:37.171Z,3.80
2022-09-06T16:29:07.057Z,2.63
2022-09-06T16:31:39.706Z,3.78
2022-09-06T16:34:08.702Z,3.00
2022-09-06T16:36:36.953Z,3.78
2022-09-06T16:39:07.140Z,3.78
2022-09-06T16:41:40.473Z,3.22
2022-09-06T16:44:09.477Z,3.60
2022-09-06T16:46:40.188Z,4.80
2022-09-06T16:49:08.347Z,5.07
2022-09-06T16:51:36.905Z,4.15
2022-09-06T16:54:06.331Z,4.43
2022-09-06T16:56:36.008Z,3.92
2022-09-06T16:59:05.988Z,2.85
2022-09-06T17:01:34.695Z,2.90
2022-09-06T17:04:03.534Z,2.53
2022-09-06T17:06:33.072Z,2.60
2022-09-06T17:09:01.149Z,2.55
2022-09-06T17:11:30.890Z,2.58
2022-09-06T17:13:59.174Z,2.75
2022-09-06T17:16:44.786Z,3.25
2022-09-06T17:19:13.592Z,2.60
2022-09-06T17:21:41.943Z,2.97
2022-09-06T17:24:10.704Z,3.45
2022-09-06T17:26:41.115Z,3.20
2022-09-06T17:29:10.471Z,3.25
2022-09-06T17:31:38.996Z,2.58
2022-09-06T17:34:07.742Z,2.47
2022-09-06T17:36:36.532Z,2.30
2022-09-06T17:39:06.525Z,2.45
2022-09-06T17:41:38.748Z,2.78
2022-09-06T17:44:10.559Z,2.28
2022-09-06T17:46:47.562Z,2.20
2022-09-06T17:49:20.659Z,2.30
2022-09-06T17:51:49.380Z,2.72
2022-09-06T17:54:17.721Z,2.50
2022-09-06T17:56:45.856Z,1.90
2022-09-06T17:59:15.742Z,2.20
2022-09-06T18:01:46.374Z,2.40
2022-09-06T18:04:15.289Z,2.30
2022-09-06T18:06:46.530Z,2.10
2022-09-06T18:09:17.501Z,1.98
2022-09-06T18:11:47.157Z,2.63
2022-09-06T18:14:20.856Z,2.25
2022-09-06T18:16:49.498Z,2.08
2022-09-06T18:19:18.777Z,2.40
2022-09-06T18:21:47.571Z,1.80
2022-09-06T18:24:16.365Z,2.22
2022-09-06T18:26:44.777Z,2.63
2022-09-06T18:29:15.046Z,2.15
2022-09-06T18:31:45.891Z,2.67
2022-09-06T18:34:14.095Z,2.25
2022-09-06T18:36:42.283Z,2.70
2022-09-06T18:39:11.395Z,2.80
2022-09-06T18:41:57.007Z,2.47
2022-09-06T18:44:25.632Z,2.15
2022-09-06T18:46:56.953Z,2.42
2022-09-06T18:49:25.133Z,2.38
2022-09-06T18:51:53.130Z,2.38
2022-09-06T18:54:21.752Z,2.60
2022-09-06T18:56:50.422Z,2.72
2022-09-06T18:59:19.092Z,2.38
2022-09-06T19:01:47.216Z,2.53
2022-09-06T19:04:16.796Z,2.30
2022-09-06T19:06:46.039Z,2.55
2022-09-06T19:09:16.463Z,2.92
2022-09-06T19:11:46.972Z,2.83
2022-09-06T19:14:15.050Z,2.60
2022-09-06T19:16:44.537Z,2.13
2022-09-06T19:19:13.508Z,2.97
2022-09-06T19:21:42.929Z,2.88
2022-09-06T19:24:14.598Z,2.80
2022-09-06T19:26:44.835Z,2.38
2022-09-06T19:29:15.409Z,3.15
2022-09-06T19:31:43.868Z,2.60
2022-09-06T19:34:13.566Z,3.05
2022-09-06T19:36:44.498Z,2.53
2022-09-06T19:39:15.420Z,2.90
2022-09-06T19:41:46.908Z,2.78
2022-09-06T19:44:16.751Z,3.10
2022-09-06T19:46:46.940Z,2.55
2022-09-06T19:49:19.188Z,2.70
2022-09-06T19:51:50.900Z,2.75
2022-09-06T19:54:19.483Z,2.80
2022-09-06T19:56:48.068Z,3.00
2022-09-06T19:59:17.748Z,2.80
2022-09-06T20:01:47.743Z,3.00
2022-09-06T20:04:16.463Z,3.25
2022-09-06T20:06:44.605Z,3.28
2022-09-06T20:09:15.914Z,3.25
2022-09-06T20:11:44.049Z,3.50
2022-09-06T20:14:13.205Z,6.25
2022-09-06T20:16:42.669Z,6.57
2022-09-06T20:19:12.025Z,5.93
2022-09-06T20:21:40.267Z,5.70
2022-09-06T20:24:08.475Z,5.78
2022-09-06T20:26:38.158Z,4.35
2022-09-06T20:29:06.948Z,3.88
2022-09-06T20:31:36.908Z,4.30
2022-09-06T20:34:06.446Z,4.57
2022-09-06T20:36:34.379Z,3.90
2022-09-06T20:39:03.042Z,4.35
2022-09-06T20:41:31.093Z,3.92
2022-09-06T20:44:01.246Z,4.15
2022-09-06T20:46:32.163Z,2.50
2022-09-06T20:49:04.382Z,3.40
2022-09-06T20:51:33.899Z,3.53
2022-09-06T20:54:02.677Z,3.92
2022-09-06T20:56:34.422Z,4.72
2022-09-06T20:59:06.315Z,4.38
2022-09-06T21:01:36.271Z,4.68
2022-09-06T21:04:06.475Z,3.58
2022-09-06T21:06:36.195Z,3.83
2022-09-06T21:09:05.848Z,3.63
2022-09-06T21:11:34.260Z,3.45
2022-09-06T21:14:04.115Z,3.28
2022-09-06T21:16:32.607Z,3.95
2022-09-06T21:19:02.579Z,3.13
2022-09-06T21:21:32.499Z,3.50
2022-09-06T21:24:01.407Z,3.20
2022-09-06T21:26:29.559Z,2.88
2022-09-06T21:28:57.623Z,2.85
2022-09-06T21:31:28.767Z,2.97
2022-09-06T21:33:58.595Z,3.30
2022-09-06T21:36:29.993Z,2.97
2022-09-06T21:39:00.192Z,2.70
2022-09-06T21:41:29.309Z,3.03
2022-09-06T21:43:59.639Z,3.33
2022-09-06T21:46:33.190Z,3.08
2022-09-06T21:49:03.552Z,3.28
2022-09-06T21:51:32.676Z,3.30
2022-09-06T21:54:03.571Z,3.83
2022-09-06T21:56:32.506Z,3.55
2022-09-06T21:59:00.807Z,3.30
2022-09-06T22:01:32.559Z,2.88
2022-09-06T22:04:01.244Z,3.03
2022-09-06T22:06:31.070Z,3.15
2022-09-06T22:09:00.474Z,3.17
2022-09-06T22:11:31.147Z,3.28
2022-09-06T22:14:00.097Z,3.38
2022-09-06T22:16:28.735Z,3.10
2022-09-06T22:18:58.472Z,3.05
2022-09-06T22:21:26.735Z,3.55
2022-09-06T22:23:56.424Z,3.72
2022-09-06T22:26:26.138Z,3.90
2022-09-06T22:28:55.425Z,3.65
2022-09-06T22:31:24.489Z,3.58
2022-09-06T22:33:52.854Z,3.97
2022-09-06T22:36:24.196Z,3.63
2022-09-06T22:38:56.385Z,3.53
2022-09-06T22:41:25.608Z,3.72
2022-09-06T22:43:53.767Z,3.25
2022-09-06T22:46:22.274Z,3.17
2022-09-06T22:48:50.491Z,3.55
2022-09-06T22:51:18.557Z,3.25
2022-09-06T22:53:47.978Z,3.05
2022-09-06T22:56:16.137Z,3.97
2022-09-06T22:58:44.128Z,3.63
2022-09-06T23:01:14.255Z,3.55
2022-09-06T23:03:42.930Z,3.47
2022-09-06T23:06:11.748Z,4.13
2022-09-06T23:08:41.360Z,3.50
2022-09-06T23:11:12.785Z,3.33
2022-09-06T23:13:44.047Z,3.65
2022-09-06T23:16:14.319Z,3.67
2022-09-06T23:18:42.671Z,4.13
2022-09-06T23:21:12.858Z,3.55
2022-09-06T23:23:42.750Z,2.90
2022-09-06T23:26:13.468Z,2.70
2022-09-06T23:28:41.729Z,3.10
2022-09-06T23:31:11.760Z,3.28
2022-09-06T23:33:40.453Z,3.60
2022-09-06T23:36:10.331Z,3.63
2022-09-06T23:38:41.227Z,3.80
2022-09-06T23:41:10.338Z,3.55
2022-09-06T23:43:40.461Z,3.55
2022-09-06T23:46:09.185Z,3.72
2022-09-06T23:48:37.556Z,3.80
2022-09-06T23:51:05.923Z,3.72
2022-09-06T23:53:34.327Z,3.65
2022-09-06T23:56:03.113Z,3.95
2022-09-06T23:58:31.470Z,3.28
